createdAt,value
2018-07-09T00:01:44.679Z,13.40
2018-07-09T00:04:13.412Z,13.60
2018-07-09T00:06:42.211Z,13.70
2018-07-09T00:09:10.965Z,13.80
2018-07-09T00:11:39.732Z,13.70
2018-07-09T00:14:08.476Z,13.70
2018-07-09T00:16:37.247Z,13.60
2018-07-09T00:19:05.994Z,13.60
2018-07-09T00:21:34.684Z,13.50
2018-07-09T00:24:03.419Z,13.30
2018-07-09T00:26:32.102Z,13.20
2018-07-09T00:29:00.841Z,13.10
2018-07-09T00:31:29.478Z,13.10
2018-07-09T00:33:58.087Z,13.00
2018-07-09T00:36:26.759Z,13.00
2018-07-09T00:38:55.443Z,13.00
2018-07-09T00:41:24.269Z,13.00
2018-07-09T00:43:53.127Z,12.90
2018-07-09T00:46:21.862Z,12.90
2018-07-09T00:48:50.586Z,12.90
2018-07-09T00:51:19.277Z,12.80
2018-07-09T00:53:47.962Z,12.80
2018-07-09T00:56:16.575Z,12.70
2018-07-09T00:58:45.370Z,12.60
2018-07-09T01:01:14.004Z,12.60
2018-07-09T01:03:42.710Z,12.60
2018-07-09T01:06:11.391Z,12.60
2018-07-09T01:08:40.155Z,12.60
2018-07-09T01:11:19.908Z,12.60
2018-07-09T01:13:48.595Z,12.50
2018-07-09T01:16:17.255Z,12.50
2018-07-09T01:18:45.959Z,12.40
2018-07-09T01:21:15.795Z,12.40
2018-07-09T01:23:44.503Z,12.40
2018-07-09T01:26:13.172Z,12.30
2018-07-09T01:28:42.658Z,12.20
2018-07-09T01:31:11.352Z,12.20
2018-07-09T01:33:40.035Z,12.10
2018-07-09T01:36:08.709Z,12.10
2018-07-09T01:38:37.410Z,12.10
2018-07-09T01:41:06.108Z,12.00
2018-07-09T01:43:34.769Z,12.00
2018-07-09T01:46:03.467Z,12.00
2018-07-09T01:48:32.212Z,12.00
2018-07-09T01:51:00.933Z,12.00
2018-07-09T01:53:29.654Z,11.90
2018-07-09T01:55:58.229Z,11.80
2018-07-09T01:58:26.845Z,11.80
2018-07-09T02:00:55.487Z,11.80
2018-07-09T02:03:24.155Z,11.80
2018-07-09T02:05:52.839Z,11.80
2018-07-09T02:08:22.020Z,11.90
2018-07-09T02:10:50.757Z,11.90
2018-07-09T02:13:19.401Z,11.90
2018-07-09T02:15:47.967Z,12.00
2018-07-09T02:18:16.670Z,11.90
2018-07-09T02:20:45.381Z,11.90
2018-07-09T02:23:14.093Z,11.80
2018-07-09T02:25:42.854Z,11.80
2018-07-09T02:28:11.573Z,11.80
2018-07-09T02:30:40.239Z,11.80
2018-07-09T02:33:08.874Z,11.80
2018-07-09T02:35:37.514Z,11.80
2018-07-09T02:38:06.482Z,11.80
2018-07-09T02:40:35.174Z,11.70
2018-07-09T02:43:03.944Z,11.70
2018-07-09T02:45:32.615Z,11.60
2018-07-09T02:48:01.347Z,11.50
2018-07-09T02:50:44.289Z,11.30
2018-07-09T02:53:13.066Z,11.30
2018-07-09T02:55:41.613Z,11.30
2018-07-09T02:58:10.153Z,11.40
2018-07-09T03:00:38.864Z,11.40
2018-07-09T03:03:07.612Z,11.40
2018-07-09T03:05:36.194Z,11.40
2018-07-09T03:08:04.850Z,11.40
2018-07-09T03:10:33.495Z,11.40
2018-07-09T03:13:02.169Z,11.40
2018-07-09T03:15:30.982Z,11.30
2018-07-09T03:17:59.688Z,11.20
2018-07-09T03:20:28.401Z,11.20
2018-07-09T03:22:57.060Z,11.10
2018-07-09T03:25:25.767Z,11.10
2018-07-09T03:27:54.420Z,11.00
2018-07-09T03:30:23.090Z,11.10
2018-07-09T03:32:51.801Z,11.10
2018-07-09T03:35:20.495Z,11.10
2018-07-09T03:37:49.272Z,11.20
2018-07-09T03:40:17.959Z,11.20
2018-07-09T03:42:46.639Z,11.20
2018-07-09T03:45:15.337Z,11.20
2018-07-09T03:47:44.099Z,11.20
2018-07-09T03:50:12.782Z,11.10
2018-07-09T03:52:41.584Z,11.20
2018-07-09T03:55:10.303Z,11.10
2018-07-09T03:57:39.056Z,11.10
2018-07-09T04:00:07.755Z,11.10
2018-07-09T04:05:04.795Z,11.30
2018-07-09T04:07:33.503Z,11.40
2018-07-09T04:12:30.474Z,11.60
2018-07-09T04:14:59.113Z,11.70
2018-07-09T04:17:27.733Z,11.60
2018-07-09T04:19:56.411Z,11.60
2018-07-09T04:22:25.003Z,11.60
2018-07-09T04:24:53.758Z,11.70
2018-07-09T04:27:22.378Z,11.70
2018-07-09T04:29:51.113Z,11.70
2018-07-09T04:32:19.775Z,11.70
2018-07-09T04:34:48.437Z,11.80
2018-07-09T04:40:18.321Z,11.90
2018-07-09T04:42:46.986Z,12.10
2018-07-09T04:45:15.708Z,12.20
2018-07-09T04:47:44.337Z,12.20
2018-07-09T04:50:13.101Z,12.30
2018-07-09T04:52:41.728Z,12.60
2018-07-09T04:55:10.430Z,13.50
2018-07-09T04:57:39.047Z,14.50
2018-07-09T05:00:07.650Z,14.80
2018-07-09T05:02:36.322Z,14.70
2018-07-09T05:05:04.983Z,14.50
2018-07-09T05:07:33.619Z,14.30
2018-07-09T05:10:02.278Z,14.20
2018-07-09T05:14:59.344Z,13.90
2018-07-09T05:17:27.958Z,14.00
2018-07-09T05:19:56.683Z,14.00
2018-07-09T05:22:25.368Z,13.90
2018-07-09T05:24:53.979Z,13.90
2018-07-09T05:27:22.651Z,13.80
2018-07-09T05:29:51.296Z,13.70
2018-07-09T05:32:20.001Z,13.70
2018-07-09T05:34:48.702Z,13.70
2018-07-09T05:37:17.414Z,13.80
2018-07-09T05:39:46.086Z,13.90
2018-07-09T05:42:14.855Z,14.00
2018-07-09T05:44:43.528Z,14.00
2018-07-09T05:47:12.243Z,14.10
2018-07-09T05:49:41.029Z,14.20
2018-07-09T05:52:09.793Z,14.30
2018-07-09T05:54:38.457Z,14.40
2018-07-09T05:57:07.183Z,14.60
2018-07-09T05:59:35.862Z,14.70
2018-07-09T06:02:04.486Z,14.90
2018-07-09T06:04:33.279Z,15.10
2018-07-09T06:07:02.004Z,15.20
2018-07-09T06:09:30.702Z,15.30
2018-07-09T06:11:59.396Z,15.50
2018-07-09T06:14:28.126Z,15.70
2018-07-09T06:16:56.748Z,15.90
2018-07-09T06:19:25.475Z,15.90
2018-07-09T06:21:54.095Z,16.10
2018-07-09T06:24:22.699Z,16.20
2018-07-09T06:26:51.558Z,16.40
2018-07-09T06:29:20.315Z,16.60
2018-07-09T06:34:46.194Z,16.90
2018-07-09T06:37:14.914Z,17.00
2018-07-09T06:39:43.637Z,17.00
2018-07-09T06:42:12.288Z,17.20
2018-07-09T06:44:40.925Z,17.30
2018-07-09T06:47:09.667Z,17.50
2018-07-09T06:49:38.382Z,17.60
2018-07-09T06:52:07.176Z,17.80
2018-07-09T06:54:35.819Z,17.80
2018-07-09T06:57:04.567Z,18.00
2018-07-09T06:59:33.184Z,18.30
2018-07-09T07:02:01.863Z,18.50
2018-07-09T07:04:30.523Z,18.70
2018-07-09T07:06:59.182Z,18.80
2018-07-09T07:09:27.927Z,19.10
2018-07-09T07:11:56.678Z,19.40
2018-07-09T07:14:25.330Z,19.90
2018-07-09T07:16:53.919Z,20.40
2018-07-09T07:19:22.660Z,20.70
2018-07-09T07:21:51.285Z,21.30
2018-07-09T07:24:21.545Z,22.20
2018-07-09T07:26:50.299Z,23.50
2018-07-09T07:29:18.946Z,25.20
2018-07-09T07:31:47.593Z,26.80
2018-07-09T07:34:16.197Z,27.80
2018-07-09T07:36:44.843Z,26.80
2018-07-09T07:39:13.528Z,26.90
2018-07-09T07:41:42.124Z,28.40
2018-07-09T07:44:10.866Z,30.80
2018-07-09T07:46:39.536Z,32.10
2018-07-09T07:49:08.216Z,33.60
2018-07-09T07:51:36.972Z,34.30
2018-07-09T07:54:05.730Z,34.50
2018-07-09T07:56:34.404Z,35.70
2018-07-09T07:59:03.101Z,36.40
2018-07-09T08:01:31.803Z,36.90
2018-07-09T08:04:00.586Z,37.10
2018-07-09T08:06:29.326Z,36.30
2018-07-09T08:08:57.978Z,37.20
2018-07-09T08:13:54.834Z,38.30
2018-07-09T08:18:51.787Z,39.30
2018-07-09T08:21:20.393Z,39.20
2018-07-09T08:26:17.327Z,39.10
2018-07-09T08:28:45.936Z,39.20
2018-07-09T08:31:14.563Z,39.30
2018-07-09T08:33:43.155Z,39.60
2018-07-09T08:36:11.852Z,40.00
2018-07-09T08:38:40.459Z,39.30
2018-07-09T08:41:09.051Z,39.80
2018-07-09T08:43:37.675Z,39.80
2018-07-09T08:46:06.374Z,39.80
2018-07-09T08:48:35.058Z,39.60
2018-07-09T08:51:03.763Z,39.40
2018-07-09T08:53:32.579Z,39.70
2018-07-09T08:56:01.187Z,39.60
2018-07-09T08:58:29.882Z,39.70
2018-07-09T09:00:58.488Z,40.40
2018-07-09T09:03:27.111Z,40.50
2018-07-09T09:05:55.706Z,39.60
2018-07-09T09:08:24.393Z,39.00
2018-07-09T09:10:52.990Z,37.50
2018-07-09T09:13:21.670Z,36.60
2018-07-09T09:15:50.274Z,37.50
2018-07-09T09:18:18.882Z,38.10
2018-07-09T09:20:47.488Z,38.60
2018-07-09T09:23:16.094Z,39.30
2018-07-09T09:25:44.836Z,39.60
2018-07-09T09:28:13.534Z,39.80
2018-07-09T09:30:42.194Z,40.00
2018-07-09T09:33:10.835Z,39.10
2018-07-09T09:35:39.538Z,37.80
2018-07-09T09:38:08.221Z,37.90
2018-07-09T09:40:36.819Z,38.80
2018-07-09T09:43:05.602Z,39.40
2018-07-09T09:45:34.291Z,39.70
2018-07-09T09:48:02.918Z,39.30
2018-07-09T09:50:31.498Z,39.30
2018-07-09T09:53:00.105Z,39.40
2018-07-09T09:55:28.667Z,39.80
2018-07-09T09:57:57.283Z,39.70
2018-07-09T10:00:31.269Z,39.80
2018-07-09T10:02:59.878Z,39.60
2018-07-09T10:07:56.926Z,40.20
2018-07-09T10:10:25.499Z,38.10
2018-07-09T10:12:54.113Z,39.00
2018-07-09T10:15:22.682Z,39.10
2018-07-09T10:17:51.266Z,39.40
2018-07-09T10:20:36.983Z,39.00
2018-07-09T10:23:05.731Z,39.50
2018-07-09T10:25:34.221Z,39.30
2018-07-09T10:30:31.232Z,39.00
2018-07-09T10:32:59.797Z,39.10
2018-07-09T10:35:28.414Z,39.20
2018-07-09T10:37:56.961Z,39.00
2018-07-09T10:40:25.612Z,39.50
2018-07-09T10:42:54.218Z,40.20
2018-07-09T10:45:22.922Z,40.80
2018-07-09T10:47:51.494Z,41.10
2018-07-09T10:50:20.151Z,40.80
2018-07-09T10:52:48.747Z,39.50
2018-07-09T10:55:17.419Z,37.70
2018-07-09T10:57:45.966Z,36.80
2018-07-09T11:00:14.649Z,37.70
2018-07-09T11:02:43.254Z,38.10
2018-07-09T11:05:11.834Z,39.00
2018-07-09T11:07:40.454Z,38.80
2018-07-09T11:10:09.138Z,39.60
2018-07-09T11:12:37.810Z,39.50
2018-07-09T11:15:06.424Z,39.90
2018-07-09T11:17:34.994Z,37.90
2018-07-09T11:20:03.697Z,35.50
2018-07-09T11:22:32.453Z,32.60
2018-07-09T11:25:01.075Z,31.30
2018-07-09T11:27:29.764Z,31.10
2018-07-09T11:29:58.460Z,31.80
2018-07-09T11:32:27.543Z,31.50
2018-07-09T11:34:56.214Z,30.70
2018-07-09T11:37:24.859Z,30.30
2018-07-09T11:39:53.545Z,30.70
2018-07-09T11:42:22.190Z,32.40
2018-07-09T11:44:50.968Z,34.40
2018-07-09T11:47:19.604Z,35.60
2018-07-09T11:49:48.204Z,36.30
2018-07-09T11:52:16.860Z,37.40
2018-07-09T11:54:45.473Z,38.30
2018-07-09T11:57:14.066Z,38.80
2018-07-09T11:59:42.690Z,39.20
2018-07-09T12:02:11.292Z,39.80
2018-07-09T12:04:39.958Z,40.40
2018-07-09T12:07:08.591Z,39.80
2018-07-09T12:09:37.303Z,38.40
2018-07-09T12:12:06.390Z,36.00
2018-07-09T12:14:35.287Z,34.00
2018-07-09T12:17:03.977Z,32.30
2018-07-09T12:19:32.608Z,30.60
2018-07-09T12:22:01.352Z,30.10
2018-07-09T12:24:30.052Z,30.00
2018-07-09T12:26:58.692Z,31.30
2018-07-09T12:29:33.843Z,33.40
2018-07-09T12:32:02.470Z,35.20
2018-07-09T12:34:31.054Z,36.30
2018-07-09T12:36:59.635Z,36.90
2018-07-09T12:39:28.229Z,37.30
2018-07-09T12:41:56.841Z,37.20
2018-07-09T12:44:25.536Z,37.70
2018-07-09T12:46:54.192Z,38.50
2018-07-09T12:49:22.781Z,38.40
2018-07-09T12:51:51.384Z,37.50
2018-07-09T12:54:19.946Z,35.90
2018-07-09T12:56:48.497Z,34.60
2018-07-09T12:59:17.121Z,34.30
2018-07-09T13:01:45.865Z,34.60
2018-07-09T13:04:19.329Z,36.20
2018-07-09T13:06:47.986Z,37.50
2018-07-09T13:09:16.758Z,36.60
2018-07-09T13:11:45.327Z,36.00
2018-07-09T13:14:13.942Z,34.80
2018-07-09T13:16:42.630Z,33.60
2018-07-09T13:19:11.254Z,32.70
2018-07-09T13:21:39.881Z,33.30
2018-07-09T13:24:08.529Z,34.30
2018-07-09T13:26:37.163Z,35.20
2018-07-09T13:29:05.847Z,35.90
2018-07-09T13:31:34.531Z,36.70
2018-07-09T13:34:03.381Z,36.90
2018-07-09T13:36:31.974Z,35.70
2018-07-09T13:39:00.570Z,35.40
2018-07-09T13:41:29.237Z,35.70
2018-07-09T13:43:57.905Z,36.20
2018-07-09T13:46:26.599Z,36.70
2018-07-09T13:48:55.277Z,37.20
2018-07-09T13:51:23.890Z,36.70
2018-07-09T13:53:52.516Z,37.00
2018-07-09T13:56:23.242Z,36.80
2018-07-09T14:01:20.177Z,36.10
2018-07-09T14:03:48.937Z,35.60
2018-07-09T14:06:17.532Z,34.10
2018-07-09T14:08:56.529Z,32.70
2018-07-09T14:11:43.788Z,33.20
2018-07-09T14:14:12.555Z,33.00
2018-07-09T14:16:41.189Z,33.10
2018-07-09T14:19:22.101Z,32.00
2018-07-09T14:21:57.325Z,31.10
2018-07-09T14:24:26.121Z,30.40
2018-07-09T14:26:54.795Z,30.00
2018-07-09T14:29:24.456Z,31.00
2018-07-09T14:31:55.271Z,32.00
2018-07-09T14:34:24.980Z,33.00
2018-07-09T14:36:58.948Z,32.40
2018-07-09T14:42:20.177Z,30.50
2018-07-09T14:44:48.882Z,30.60
2018-07-09T14:47:17.587Z,31.20
2018-07-09T14:49:46.331Z,31.90
2018-07-09T14:52:15.180Z,32.30
2018-07-09T14:54:48.318Z,32.30
2018-07-09T14:57:17.407Z,32.40
2018-07-09T14:59:46.107Z,32.40
2018-07-09T15:02:15.745Z,32.80
2018-07-09T15:04:44.704Z,32.90
2018-07-09T15:07:13.411Z,32.90
2018-07-09T15:09:42.099Z,32.10
2018-07-09T15:12:10.763Z,31.20
2018-07-09T15:14:39.554Z,31.40
2018-07-09T15:17:08.620Z,31.60
2018-07-09T15:19:37.289Z,31.90
2018-07-09T15:22:06.030Z,32.60
2018-07-09T15:24:34.990Z,33.00
2018-07-09T15:27:03.599Z,33.60
2018-07-09T15:29:32.275Z,33.20
2018-07-09T15:32:12.079Z,33.20
2018-07-09T15:34:40.800Z,33.70
2018-07-09T15:39:37.773Z,34.20
2018-07-09T15:42:06.423Z,34.60
2018-07-09T15:44:35.161Z,34.60
2018-07-09T15:47:03.933Z,34.90
2018-07-09T15:49:32.806Z,34.80
2018-07-09T15:52:01.435Z,34.70
2018-07-09T15:54:30.100Z,34.60
2018-07-09T15:56:58.753Z,34.80
2018-07-09T15:59:27.513Z,35.20
2018-07-09T16:01:56.260Z,34.80
2018-07-09T16:04:24.918Z,34.60
2018-07-09T16:06:53.650Z,34.50
2018-07-09T16:09:22.362Z,34.70
2018-07-09T16:11:51.010Z,34.70
2018-07-09T16:14:19.714Z,34.70
2018-07-09T16:16:48.482Z,34.10
2018-07-09T16:19:17.273Z,33.30
2018-07-09T16:21:45.886Z,31.70
2018-07-09T16:24:14.589Z,30.40
2018-07-09T16:26:43.222Z,30.10
2018-07-09T16:29:11.966Z,30.70
2018-07-09T16:31:40.405Z,30.90
2018-07-09T16:34:09.321Z,30.50
2018-07-09T16:36:38.075Z,30.50
2018-07-09T16:39:07.608Z,31.00
2018-07-09T16:41:36.466Z,31.10
2018-07-09T16:44:05.419Z,31.20
2018-07-09T16:46:34.107Z,31.30
2018-07-09T16:51:56.725Z,30.70
2018-07-09T16:54:25.338Z,30.60
2018-07-09T16:56:54.079Z,29.70
2018-07-09T16:59:23.176Z,28.90
2018-07-09T17:01:57.563Z,28.40
2018-07-09T17:04:26.335Z,28.00
2018-07-09T17:06:54.966Z,27.70
2018-07-09T17:09:23.667Z,27.60
2018-07-09T17:11:52.369Z,27.40
2018-07-09T17:14:21.119Z,27.10
2018-07-09T17:16:49.811Z,27.00
2018-07-09T17:19:18.479Z,26.80
2018-07-09T17:24:15.515Z,26.50
2018-07-09T17:26:44.178Z,26.50
2018-07-09T17:29:12.758Z,26.30
2018-07-09T17:31:41.485Z,26.20
2018-07-09T17:36:38.374Z,25.80
2018-07-09T17:39:07.039Z,25.70
2018-07-09T17:41:35.738Z,25.50
2018-07-09T17:44:04.503Z,25.50
2018-07-09T17:46:33.135Z,25.40
2018-07-09T17:49:02.918Z,25.30
2018-07-09T17:53:59.995Z,25.20
2018-07-09T17:56:34.259Z,25.10
2018-07-09T17:59:03.072Z,25.10
2018-07-09T18:01:31.840Z,25.00
2018-07-09T18:04:07.048Z,25.00
2018-07-09T18:06:35.862Z,24.80
2018-07-09T18:09:09.299Z,24.80
2018-07-09T18:11:38.063Z,24.70
2018-07-09T18:14:24.184Z,24.70
2018-07-09T18:16:52.903Z,24.70
2018-07-09T18:19:21.561Z,24.60
2018-07-09T18:21:50.283Z,24.60
2018-07-09T18:24:18.868Z,24.50
2018-07-09T18:26:47.722Z,24.40
2018-07-09T18:29:19.869Z,24.10
2018-07-09T18:31:53.921Z,24.00
2018-07-09T18:34:23.850Z,23.70
2018-07-09T18:36:53.045Z,23.40
2018-07-09T18:39:38.054Z,23.30
2018-07-09T18:42:06.904Z,23.20
2018-07-09T18:44:35.606Z,23.00
2018-07-09T18:47:06.642Z,22.90
2018-07-09T18:49:45.746Z,22.70
2018-07-09T18:52:14.469Z,22.70
2018-07-09T18:54:43.158Z,22.50
2018-07-09T18:57:11.907Z,22.50
2018-07-09T18:59:40.676Z,22.30
2018-07-09T19:02:09.340Z,22.10
2018-07-09T19:04:38.236Z,22.00
2018-07-09T19:07:08.355Z,21.80
2018-07-09T19:09:37.708Z,21.70
2018-07-09T19:12:07.663Z,21.70
2018-07-09T19:14:38.349Z,21.60
2018-07-09T19:17:19.135Z,21.40
2018-07-09T19:19:51.420Z,21.20
2018-07-09T19:22:29.783Z,21.00
2018-07-09T19:24:57.187Z,20.80
2018-07-09T19:27:24.618Z,20.50
2018-07-09T19:29:52.015Z,20.30
2018-07-09T19:32:19.490Z,20.10
2018-07-09T19:34:46.970Z,19.90
2018-07-09T19:37:14.429Z,19.70
2018-07-09T19:39:41.758Z,19.60
2018-07-09T19:42:14.966Z,19.40
2018-07-09T19:44:42.332Z,19.30
2018-07-09T19:47:09.791Z,19.10
2018-07-09T19:49:37.206Z,19.00
2018-07-09T19:52:04.674Z,18.90
2018-07-09T19:54:32.128Z,18.80
2018-07-09T19:56:59.518Z,18.80
2018-07-09T19:59:26.922Z,18.80
2018-07-09T20:01:54.356Z,18.70
2018-07-09T20:04:21.742Z,18.70
2018-07-09T20:09:21.979Z,18.70
2018-07-09T20:11:54.680Z,18.60
2018-07-09T20:14:27.524Z,18.60
2018-07-09T20:17:00.073Z,18.70
2018-07-09T20:19:27.462Z,18.60
2018-07-09T20:21:54.826Z,18.60
2018-07-09T20:24:22.230Z,18.60
2018-07-09T20:26:49.668Z,18.60
2018-07-09T20:29:17.220Z,18.60
2018-07-09T20:31:44.630Z,18.70
2018-07-09T20:34:12.066Z,18.80
2018-07-09T20:36:39.475Z,19.00
2018-07-09T20:39:07.591Z,19.10
2018-07-09T20:41:35.163Z,19.10
2018-07-09T20:44:03.124Z,19.10
2018-07-09T20:46:30.943Z,19.30
2018-07-09T20:48:58.481Z,19.50
2018-07-09T20:51:25.954Z,19.50
2018-07-09T20:53:53.357Z,19.40
2018-07-09T20:56:20.843Z,19.40
2018-07-09T20:58:48.229Z,19.30
2018-07-09T21:01:15.569Z,19.20
2018-07-09T21:03:42.942Z,19.10
2018-07-09T21:06:10.377Z,19.00
2018-07-09T21:08:37.757Z,18.90
2018-07-09T21:11:05.129Z,18.80
2018-07-09T21:13:32.957Z,18.60
2018-07-09T21:16:00.560Z,18.40
2018-07-09T21:18:27.726Z,18.20
2018-07-09T21:20:55.114Z,17.90
2018-07-09T21:23:22.522Z,17.70
2018-07-09T21:25:49.946Z,17.50
2018-07-09T21:30:44.968Z,17.50
2018-07-09T21:33:12.330Z,17.40
2018-07-09T21:35:39.823Z,17.50
2018-07-09T21:38:07.279Z,17.50
2018-07-09T21:40:34.709Z,17.40
2018-07-09T21:43:02.038Z,17.30
2018-07-09T21:45:29.485Z,17.30
2018-07-09T21:47:59.211Z,17.30
2018-07-09T21:50:24.391Z,17.20
2018-07-09T21:52:51.765Z,17.10
2018-07-09T21:55:19.171Z,16.90
2018-07-09T21:57:46.610Z,16.80
2018-07-09T22:00:13.976Z,16.70
2018-07-09T22:02:41.443Z,16.70
2018-07-09T22:05:08.796Z,16.60
2018-07-09T22:07:36.210Z,16.50
2018-07-09T22:10:03.668Z,16.50
2018-07-09T22:12:31.053Z,16.50
2018-07-09T22:14:58.424Z,16.60
2018-07-09T22:17:25.833Z,16.60
2018-07-09T22:19:53.258Z,16.70
2018-07-09T22:22:20.675Z,16.70
2018-07-09T22:24:48.139Z,16.60
2018-07-09T22:27:15.462Z,16.50
2018-07-09T22:29:42.895Z,16.40
2018-07-09T22:32:11.602Z,16.30
2018-07-09T22:34:40.271Z,16.40
2018-07-09T22:37:09.854Z,16.50
2018-07-09T22:39:38.587Z,16.50
2018-07-09T22:42:07.277Z,16.60
2018-07-09T22:44:35.931Z,16.60
2018-07-09T22:47:04.585Z,16.50
2018-07-09T22:49:33.206Z,16.50
2018-07-09T22:52:01.878Z,16.40
2018-07-09T22:56:58.780Z,16.40
2018-07-09T22:59:27.441Z,16.30
2018-07-09T23:01:56.123Z,16.30
2018-07-09T23:04:24.791Z,16.30
2018-07-09T23:06:53.462Z,16.30
2018-07-09T23:11:37.483Z,16.30
2018-07-09T23:16:47.143Z,16.20
2018-07-09T23:20:34.201Z,16.10
2018-07-09T23:23:01.604Z,16.10
2018-07-09T23:25:29.008Z,16.00
2018-07-09T23:27:56.424Z,16.00
2018-07-09T23:30:23.851Z,15.90
2018-07-09T23:32:51.254Z,15.90
2018-07-09T23:35:18.671Z,15.90
2018-07-09T23:37:46.084Z,15.90
2018-07-09T23:40:13.486Z,15.90
2018-07-09T23:42:40.899Z,15.80
2018-07-09T23:45:08.265Z,15.80
2018-07-09T23:47:35.665Z,15.80
2018-07-09T23:50:03.099Z,15.80
2018-07-09T23:52:30.470Z,15.80
2018-07-09T23:54:57.833Z,15.70
2018-07-09T23:59:48.250Z,15.70
